Time,TemperatureF,DewpointF,PressureIn,WindDirection,WindDirectionDegrees,WindSpeedMPH,WindSpeedGustMPH,Humidity,HourlyPrecipIn,Conditions,Clouds,dailyrainin,SolarRadiationWatts/m^2,SoftwareType,DateUTC
2013-08-10 00:00:00,63.0,61.0,-100.00,South,176,1.0,4.0,93,-99.99,,,0.00,0.120000,,2013-08-10 07:00:00,
2013-08-10 00:43:00,63.0,61.0,-100.00,South,176,1.0,4.0,93,-99.99,,,0.00,0.120000,,2013-08-10 07:43:00,
2013-08-10 00:52:00,63.0,61.0,-100.00,South,176,1.0,4.0,93,-99.99,,,0.00,0.120000,,2013-08-10 07:52:00,
2013-08-10 01:00:00,62.0,60.0,-100.00,WSW,253,1.0,3.0,96,-99.99,,,0.00,0.120000,,2013-08-10 08:00:00,
2013-08-10 01:43:00,62.0,60.0,-100.00,WSW,253,1.0,3.0,96,-99.99,,,0.00,0.120000,,2013-08-10 08:43:00,
2013-08-10 01:53:00,62.0,60.0,-100.00,WSW,253,1.0,3.0,96,-99.99,,,0.00,0.120000,,2013-08-10 08:53:00,
2013-08-10 02:00:00,62.0,61.0,-100.00,East,94,3.0,5.0,96,-99.99,,,0.00,0.120000,,2013-08-10 09:00:00,
2013-08-10 02:52:00,62.0,61.0,-100.00,East,94,3.0,5.0,96,-99.99,,,0.00,0.120000,,2013-08-10 09:52:00,
2013-08-10 03:00:00,61.0,60.0,-100.00,SE,139,1.0,3.0,95,-99.99,,,0.00,0.120000,,2013-08-10 10:00:00,
2013-08-10 03:44:00,61.0,60.0,-100.00,SE,139,1.0,3.0,95,-99.99,,,0.00,0.120000,,2013-08-10 10:44:00,
2013-08-10 03:53:00,61.0,60.0,-100.00,SE,139,1.0,3.0,95,-99.99,,,0.00,0.120000,,2013-08-10 10:53:00,
2013-08-10 04:00:00,59.0,58.0,-100.00,SE,138,2.0,3.0,96,-99.99,,,0.00,0.120000,,2013-08-10 11:00:00,
2013-08-10 04:43:00,59.0,58.0,-100.00,SE,138,2.0,3.0,96,-99.99,,,0.00,0.120000,,2013-08-10 11:43:00,
2013-08-10 04:53:00,59.0,58.0,-100.00,SE,138,2.0,3.0,96,-99.99,,,0.00,0.120000,,2013-08-10 11:53:00,
2013-08-10 05:00:00,57.0,56.0,-100.00,SSE,162,1.0,3.0,96,-99.99,,,0.00,0.120000,,2013-08-10 12:00:00,
2013-08-10 05:52:00,57.0,56.0,-100.00,SSE,162,1.0,3.0,96,-99.99,,,0.00,0.120000,,2013-08-10 12:52:00,
2013-08-10 06:00:00,57.0,56.0,-100.00,ESE,110,0.0,1.0,96,-99.99,,,0.00,1.510000,,2013-08-10 13:00:00,
2013-08-10 06:43:00,57.0,56.0,-100.00,ESE,110,0.0,1.0,96,-99.99,,,0.00,1.510000,,2013-08-10 13:43:00,
2013-08-10 06:52:00,57.0,56.0,-100.00,ESE,110,0.0,1.0,96,-99.99,,,0.00,1.510000,,2013-08-10 13:52:00,
2013-08-10 07:00:00,58.0,57.0,-100.00,SSE,159,1.0,3.0,96,-99.99,,,0.00,57.299999,,2013-08-10 14:00:00,
2013-08-10 07:42:00,58.0,57.0,-100.00,SSE,159,1.0,3.0,96,-99.99,,,0.00,57.299999,,2013-08-10 14:42:00,
2013-08-10 07:53:00,58.0,57.0,-100.00,SSE,159,1.0,3.0,96,-99.99,,,0.00,57.299999,,2013-08-10 14:53:00,
2013-08-10 08:00:00,65.0,62.0,-100.00,SE,137,0.0,2.0,91,-99.99,,,0.00,229.770004,,2013-08-10 15:00:00,
2013-08-10 08:43:00,65.0,62.0,-100.00,SE,137,0.0,2.0,91,-99.99,,,0.00,229.770004,,2013-08-10 15:43:00,
2013-08-10 08:52:00,65.0,62.0,-100.00,SE,137,0.0,2.0,91,-99.99,,,0.00,229.770004,,2013-08-10 15:52:00,
2013-08-10 09:00:00,70.0,62.0,-100.00,East,85,2.0,4.0,75,-99.99,,,0.00,395.730011,,2013-08-10 16:00:00,
2013-08-10 09:43:00,70.0,62.0,-100.00,East,85,2.0,4.0,75,-99.99,,,0.00,395.730011,,2013-08-10 16:43:00,
2013-08-10 09:53:00,70.0,62.0,-100.00,East,85,2.0,4.0,75,-99.99,,,0.00,395.730011,,2013-08-10 16:53:00,
2013-08-10 10:00:00,73.0,62.0,-100.00,North,350,4.0,9.0,68,-99.99,,,0.00,541.349976,,2013-08-10 17:00:00,
2013-08-10 10:43:00,73.0,62.0,-100.00,North,350,4.0,9.0,68,-99.99,,,0.00,541.349976,,2013-08-10 17:43:00,
2013-08-10 10:52:00,73.0,62.0,-100.00,North,350,4.0,9.0,68,-99.99,,,0.00,541.349976,,2013-08-10 17:52:00,
2013-08-10 11:00:00,77.0,63.0,-100.00,NNW,334,6.0,15.0,61,-99.99,,,0.00,657.690002,,2013-08-10 18:00:00,
2013-08-10 11:43:00,77.0,63.0,-100.00,NNW,334,6.0,15.0,61,-99.99,,,0.00,657.690002,,2013-08-10 18:43:00,
2013-08-10 11:52:00,77.0,63.0,-100.00,NNW,334,6.0,15.0,61,-99.99,,,0.00,657.690002,,2013-08-10 18:52:00,
2013-08-10 12:00:00,76.0,60.0,-100.00,NNW,328,8.0,16.0,56,-99.99,,,0.00,395.029999,,2013-08-10 19:00:00,
2013-08-10 12:44:00,76.0,60.0,-100.00,NNW,328,8.0,16.0,56,-99.99,,,0.00,395.029999,,2013-08-10 19:44:00,
2013-08-10 12:53:00,76.0,60.0,-100.00,NNW,328,8.0,16.0,56,-99.99,,,0.00,395.029999,,2013-08-10 19:53:00,
2013-08-10 13:00:00,76.0,59.0,-100.00,NW,324,5.0,13.0,55,-99.99,,,0.00,569.130005,,2013-08-10 20:00:00,
2013-08-10 13:43:00,76.0,59.0,-100.00,NW,324,5.0,13.0,55,-99.99,,,0.00,569.130005,,2013-08-10 20:43:00,
2013-08-10 13:53:00,76.0,59.0,-100.00,NW,324,5.0,13.0,55,-99.99,,,0.00,569.130005,,2013-08-10 20:53:00,
2013-08-10 14:00:00,80.0,60.0,-100.00,NW,308,5.0,15.0,51,-99.99,,,0.00,613.059998,,2013-08-10 21:00:00,
2013-08-10 14:42:00,80.0,60.0,-100.00,NW,308,5.0,15.0,51,-99.99,,,0.00,613.059998,,2013-08-10 21:42:00,
2013-08-10 14:52:00,80.0,60.0,-100.00,NW,308,5.0,15.0,51,-99.99,,,0.00,613.059998,,2013-08-10 21:52:00,
2013-08-10 15:00:00,79.0,60.0,-100.00,North,358,5.0,12.0,52,-99.99,,,0.00,242.899994,,2013-08-10 22:00:00,
2013-08-10 15:43:00,79.0,60.0,-100.00,North,358,5.0,12.0,52,-99.99,,,0.00,242.899994,,2013-08-10 22:43:00,
2013-08-10 15:52:00,79.0,60.0,-100.00,North,358,5.0,12.0,52,-99.99,,,0.00,242.899994,,2013-08-10 22:52:00,
2013-08-10 16:00:00,78.0,60.0,-100.00,NW,317,3.0,7.0,55,-99.99,,,0.00,202.339996,,2013-08-10 23:00:00,
2013-08-10 16:43:00,78.0,60.0,-100.00,NW,317,3.0,7.0,55,-99.99,,,0.00,202.339996,,2013-08-10 23:43:00,
2013-08-10 16:53:00,78.0,60.0,-100.00,NW,317,3.0,7.0,55,-99.99,,,0.00,202.339996,,2013-08-10 23:53:00,
2013-08-10 17:00:00,77.0,61.0,-100.00,West,278,3.0,9.0,58,-99.99,,,0.00,81.239998,,2013-08-11 00:00:00,
2013-08-10 17:42:00,77.0,61.0,-100.00,West,278,3.0,9.0,58,-99.99,,,0.00,81.239998,,2013-08-11 00:42:00,
2013-08-10 17:52:00,77.0,61.0,-100.00,West,278,3.0,9.0,58,-99.99,,,0.00,81.239998,,2013-08-11 00:52:00,
2013-08-10 18:00:00,73.0,61.0,-100.00,South,173,3.0,9.0,64,-99.99,,,0.00,91.930000,,2013-08-11 01:00:00,
2013-08-10 18:43:00,73.0,61.0,-100.00,South,173,3.0,9.0,64,-99.99,,,0.00,91.930000,,2013-08-11 01:43:00,
2013-08-10 18:53:00,73.0,61.0,-100.00,South,173,3.0,9.0,64,-99.99,,,0.00,91.930000,,2013-08-11 01:53:00,
2013-08-10 19:00:00,72.0,63.0,-100.00,ESE,104,2.0,5.0,75,-99.99,,,0.00,81.349998,,2013-08-11 02:00:00,
2013-08-10 19:43:00,72.0,63.0,-100.00,ESE,104,2.0,5.0,75,-99.99,,,0.00,81.349998,,2013-08-11 02:43:00,
2013-08-10 19:57:00,72.0,63.0,-100.00,ESE,104,2.0,5.0,75,-99.99,,,0.00,81.349998,,2013-08-11 02:57:00,
2013-08-10 20:00:00,70.0,64.0,-100.00,South,185,3.0,6.0,81,-99.99,,,0.00,4.530000,,2013-08-11 03:00:00,
2013-08-10 20:43:00,70.0,64.0,-100.00,South,185,3.0,6.0,81,-99.99,,,0.00,4.530000,,2013-08-11 03:43:00,
2013-08-10 20:55:00,70.0,64.0,-100.00,South,185,3.0,6.0,81,-99.99,,,0.00,4.530000,,2013-08-11 03:55:00,
2013-08-10 21:00:00,67.0,61.0,-100.00,South,191,2.0,4.0,80,-99.99,,,0.00,0.120000,,2013-08-11 04:00:00,
2013-08-10 21:42:00,67.0,61.0,-100.00,South,191,2.0,4.0,80,-99.99,,,0.00,0.120000,,2013-08-11 04:42:00,
2013-08-10 21:53:00,67.0,61.0,-100.00,South,191,2.0,4.0,80,-99.99,,,0.00,0.120000,,2013-08-11 04:53:00,
2013-08-10 22:00:00,67.0,62.0,-100.00,ESE,122,1.0,4.0,83,-99.99,,,0.00,0.120000,,2013-08-11 05:00:00,
2013-08-10 22:44:00,67.0,62.0,-100.00,ESE,122,1.0,4.0,83,-99.99,,,0.00,0.120000,,2013-08-11 05:44:00,
2013-08-10 23:00:00,66.0,61.0,-100.00,NE,49,2.0,4.0,85,-99.99,,,0.00,0.120000,,2013-08-11 06:00:00,
2013-08-10 23:47:00,66.0,61.0,-100.00,NE,49,2.0,4.0,85,-99.99,,,0.00,0.120000,,2013-08-11 06:47:00,
2013-08-10 23:56:00,66.0,61.0,-100.00,NE,49,2.0,4.0,85,-99.99,,,0.00,0.120000,,2013-08-11 06:56:00,